Terminal Aerodrome Forecast
Issued by NWS Springfield, MO

Home | Current Version | Previous Version | Text Only | Print | Product List | Glossary On
Versions: 1 2 3 4 5 6 7 8 9 10 11 12 13 14 15 16 17 18 19 20
000
FTUS43 KSGF 242300
TAFSGF
TAF
KSGF 242320Z 2500/2524 22005KT P6SM BKN250
     FM250800 VRB04KT 5SM BR SKC
      TEMPO 2510/2513 2SM BR SKC
     FM251400 24007KT P6SM SKC=

USA.gov is the U.S. government's official web portal to all federal, state and local government web resources and services.